sensor_id;sensor_type;location;lat;lon;timestamp;temperature;humidity
37380;DHT22;23252;-33.992;18.480;2023-06-10T00:00:46;12.80;99.90
37380;DHT22;23252;-33.992;18.480;2023-06-10T00:03:13;12.80;99.90
37380;DHT22;23252;-33.992;18.480;2023-06-10T00:05:41;12.80;99.90
37380;DHT22;23252;-33.992;18.480;2023-06-10T00:08:07;12.70;99.90
37380;DHT22;23252;-33.992;18.480;2023-06-10T00:10:35;12.70;99.90
37380;DHT22;23252;-33.992;18.480;2023-06-10T00:13:03;12.70;99.90
37380;DHT22;23252;-33.992;18.480;2023-06-10T00:15:33;12.70;99.90
37380;DHT22;23252;-33.992;18.480;2023-06-10T00:17:59;12.80;99.90
37380;DHT22;23252;-33.992;18.480;2023-06-10T00:20:27;12.80;99.90
37380;DHT22;23252;-33.992;18.480;2023-06-10T00:22:56;12.80;99.90
37380;DHT22;23252;-33.992;18.480;2023-06-10T00:25:23;12.80;99.90
37380;DHT22;23252;-33.992;18.480;2023-06-10T00:27:49;12.80;99.90
37380;DHT22;23252;-33.992;18.480;2023-06-10T00:30:16;12.80;99.90
37380;DHT22;23252;-33.992;18.480;2023-06-10T00:32:42;12.80;99.90
37380;DHT22;23252;-33.992;18.480;2023-06-10T00:35:09;12.80;99.90
37380;DHT22;23252;-33.992;18.480;2023-06-10T00:37:36;12.80;99.90
37380;DHT22;23252;-33.992;18.480;2023-06-10T00:40:03;12.80;99.90
37380;DHT22;23252;-33.992;18.480;2023-06-10T00:42:30;12.80;99.90
37380;DHT22;23252;-33.992;18.480;2023-06-10T00:44:57;12.80;99.90
37380;DHT22;23252;-33.992;18.480;2023-06-10T00:47:23;12.80;99.90
37380;DHT22;23252;-33.992;18.480;2023-06-10T00:49:51;12.80;99.90
37380;DHT22;23252;-33.992;18.480;2023-06-10T00:52:18;12.80;99.90
37380;DHT22;23252;-33.992;18.480;2023-06-10T00:54:46;12.80;99.90
37380;DHT22;23252;-33.992;18.480;2023-06-10T00:57:13;12.80;99.90
37380;DHT22;23252;-33.992;18.480;2023-06-10T00:59:45;12.90;99.90
37380;DHT22;23252;-33.992;18.480;2023-06-10T01:02:13;12.90;99.90
37380;DHT22;23252;-33.992;18.480;2023-06-10T01:04:40;12.90;99.90
37380;DHT22;23252;-33.992;18.480;2023-06-10T01:07:15;12.90;99.90
37380;DHT22;23252;-33.992;18.480;2023-06-10T01:12:38;12.90;99.90
37380;DHT22;23252;-33.992;18.480;2023-06-10T01:15:06;12.90;99.90
37380;DHT22;23252;-33.992;18.480;2023-06-10T01:17:37;12.90;99.90
37380;DHT22;23252;-33.992;18.480;2023-06-10T01:20:17;12.90;99.90
37380;DHT22;23252;-33.992;18.480;2023-06-10T01:22:44;12.90;99.90
37380;DHT22;23252;-33.992;18.480;2023-06-10T01:25:11;12.90;99.90
37380;DHT22;23252;-33.992;18.480;2023-06-10T01:27:38;12.80;99.90
37380;DHT22;23252;-33.992;18.480;2023-06-10T01:30:14;12.80;99.90
37380;DHT22;23252;-33.992;18.480;2023-06-10T01:32:45;12.80;99.90
37380;DHT22;23252;-33.992;18.480;2023-06-10T01:35:14;12.70;99.90
37380;DHT22;23252;-33.992;18.480;2023-06-10T01:37:46;12.70;99.90
37380;DHT22;23252;-33.992;18.480;2023-06-10T01:40:14;12.70;99.90
37380;DHT22;23252;-33.992;18.480;2023-06-10T01:42:41;12.70;99.90
37380;DHT22;23252;-33.992;18.480;2023-06-10T01:45:08;12.70;99.90
37380;DHT22;23252;-33.992;18.480;2023-06-10T01:47:35;12.60;99.90
37380;DHT22;23252;-33.992;18.480;2023-06-10T01:50:01;12.60;99.90
37380;DHT22;23252;-33.992;18.480;2023-06-10T01:52:28;12.60;99.90
37380;DHT22;23252;-33.992;18.480;2023-06-10T01:54:54;12.60;99.90
37380;DHT22;23252;-33.992;18.480;2023-06-10T01:57:21;12.60;99.90
37380;DHT22;23252;-33.992;18.480;2023-06-10T01:59:47;12.50;99.90
37380;DHT22;23252;-33.992;18.480;2023-06-10T02:02:14;12.40;99.90
37380;DHT22;23252;-33.992;18.480;2023-06-10T02:04:40;12.50;99.90
37380;DHT22;23252;-33.992;18.480;2023-06-10T02:07:07;12.50;99.90
37380;DHT22;23252;-33.992;18.480;2023-06-10T02:09:34;12.50;99.90
37380;DHT22;23252;-33.992;18.480;2023-06-10T02:12:02;12.40;99.90
37380;DHT22;23252;-33.992;18.480;2023-06-10T02:14:32;12.40;99.90
37380;DHT22;23252;-33.992;18.480;2023-06-10T02:16:59;12.50;99.90
37380;DHT22;23252;-33.992;18.480;2023-06-10T02:19:30;12.60;99.90
37380;DHT22;23252;-33.992;18.480;2023-06-10T02:21:57;12.60;99.90
37380;DHT22;23252;-33.992;18.480;2023-06-10T02:24:23;12.60;99.90
37380;DHT22;23252;-33.992;18.480;2023-06-10T02:26:52;12.60;99.90
37380;DHT22;23252;-33.992;18.480;2023-06-10T02:29:19;12.60;99.90
37380;DHT22;23252;-33.992;18.480;2023-06-10T02:31:49;12.60;99.90
37380;DHT22;23252;-33.992;18.480;2023-06-10T02:34:15;12.60;99.90
37380;DHT22;23252;-33.992;18.480;2023-06-10T02:36:45;12.60;99.90
37380;DHT22;23252;-33.992;18.480;2023-06-10T02:39:11;12.50;99.90
37380;DHT22;23252;-33.992;18.480;2023-06-10T02:41:38;12.50;99.90
37380;DHT22;23252;-33.992;18.480;2023-06-10T02:44:07;12.50;99.90
37380;DHT22;23252;-33.992;18.480;2023-06-10T02:46:34;12.50;99.90
37380;DHT22;23252;-33.992;18.480;2023-06-10T02:49:06;12.50;99.90
37380;DHT22;23252;-33.992;18.480;2023-06-10T02:51:36;12.50;99.90
37380;DHT22;23252;-33.992;18.480;2023-06-10T02:54:02;12.40;99.90
37380;DHT22;23252;-33.992;18.480;2023-06-10T02:56:29;12.40;99.90
37380;DHT22;23252;-33.992;18.480;2023-06-10T02:58:59;12.50;99.90
37380;DHT22;23252;-33.992;18.480;2023-06-10T03:01:28;12.40;99.90
37380;DHT22;23252;-33.992;18.480;2023-06-10T03:03:57;12.40;99.90
37380;DHT22;23252;-33.992;18.480;2023-06-10T03:06:26;12.40;99.90
37380;DHT22;23252;-33.992;18.480;2023-06-10T03:08:53;12.40;99.90
37380;DHT22;23252;-33.992;18.480;2023-06-10T03:11:19;12.40;99.90
37380;DHT22;23252;-33.992;18.480;2023-06-10T03:13:52;12.40;99.90
37380;DHT22;23252;-33.992;18.480;2023-06-10T03:16:21;12.40;99.90
37380;DHT22;23252;-33.992;18.480;2023-06-10T03:18:49;12.40;99.90
37380;DHT22;23252;-33.992;18.480;2023-06-10T03:21:15;12.40;99.90
37380;DHT22;23252;-33.992;18.480;2023-06-10T03:23:42;12.40;99.90
37380;DHT22;23252;-33.992;18.480;2023-06-10T03:26:08;12.40;99.90
37380;DHT22;23252;-33.992;18.480;2023-06-10T03:28:40;12.40;99.90
37380;DHT22;23252;-33.992;18.480;2023-06-10T03:31:06;12.30;99.90
37380;DHT22;23252;-33.992;18.480;2023-06-10T03:33:33;12.30;99.90
37380;DHT22;23252;-33.992;18.480;2023-06-10T03:36:03;12.30;99.90
37380;DHT22;23252;-33.992;18.480;2023-06-10T03:38:32;12.30;99.90
37380;DHT22;23252;-33.992;18.480;2023-06-10T03:41:04;12.30;99.90
37380;DHT22;23252;-33.992;18.480;2023-06-10T03:43:31;12.20;99.90
37380;DHT22;23252;-33.992;18.480;2023-06-10T03:45:58;12.30;99.90
37380;DHT22;23252;-33.992;18.480;2023-06-10T03:48:27;12.20;99.90
37380;DHT22;23252;-33.992;18.480;2023-06-10T03:50:53;12.20;99.90
37380;DHT22;23252;-33.992;18.480;2023-06-10T03:53:20;12.20;99.90
37380;DHT22;23252;-33.992;18.480;2023-06-10T03:55:50;12.20;99.90
37380;DHT22;23252;-33.992;18.480;2023-06-10T03:58:16;12.20;99.90
37380;DHT22;23252;-33.992;18.480;2023-06-10T04:00:44;12.20;99.90
37380;DHT22;23252;-33.992;18.480;2023-06-10T04:03:14;12.10;99.90
37380;DHT22;23252;-33.992;18.480;2023-06-10T04:05:41;12.10;99.90
37380;DHT22;23252;-33.992;18.480;2023-06-10T04:08:08;12.00;99.90
37380;DHT22;23252;-33.992;18.480;2023-06-10T04:10:35;12.00;99.90
37380;DHT22;23252;-33.992;18.480;2023-06-10T04:13:02;11.90;99.90
37380;DHT22;23252;-33.992;18.480;2023-06-10T04:15:29;11.90;99.90
37380;DHT22;23252;-33.992;18.480;2023-06-10T04:17:58;11.70;99.90
37380;DHT22;23252;-33.992;18.480;2023-06-10T04:20:25;11.80;99.90
37380;DHT22;23252;-33.992;18.480;2023-06-10T04:22:52;11.70;99.90
37380;DHT22;23252;-33.992;18.480;2023-06-10T04:25:19;11.70;99.90
37380;DHT22;23252;-33.992;18.480;2023-06-10T04:27:46;11.70;99.90
37380;DHT22;23252;-33.992;18.480;2023-06-10T04:30:13;11.60;99.90
37380;DHT22;23252;-33.992;18.480;2023-06-10T04:32:39;11.60;99.90
37380;DHT22;23252;-33.992;18.480;2023-06-10T04:35:06;11.60;99.90
37380;DHT22;23252;-33.992;18.480;2023-06-10T04:37:33;11.60;99.90
37380;DHT22;23252;-33.992;18.480;2023-06-10T04:40:00;11.60;99.90
37380;DHT22;23252;-33.992;18.480;2023-06-10T04:42:27;11.60;99.90
37380;DHT22;23252;-33.992;18.480;2023-06-10T04:44:53;11.60;99.90
37380;DHT22;23252;-33.992;18.480;2023-06-10T04:47:20;11.60;99.90
37380;DHT22;23252;-33.992;18.480;2023-06-10T04:49:47;11.60;99.90
37380;DHT22;23252;-33.992;18.480;2023-06-10T04:52:13;11.50;99.90
37380;DHT22;23252;-33.992;18.480;2023-06-10T04:54:40;11.50;99.90
37380;DHT22;23252;-33.992;18.480;2023-06-10T04:57:07;11.50;99.90
37380;DHT22;23252;-33.992;18.480;2023-06-10T04:59:34;11.40;99.90
37380;DHT22;23252;-33.992;18.480;2023-06-10T05:02:04;11.40;99.90
37380;DHT22;23252;-33.992;18.480;2023-06-10T05:04:31;11.40;99.90
37380;DHT22;23252;-33.992;18.480;2023-06-10T05:07:00;11.40;99.90
37380;DHT22;23252;-33.992;18.480;2023-06-10T05:09:27;11.50;99.90
37380;DHT22;23252;-33.992;18.480;2023-06-10T05:11:53;11.50;99.90
37380;DHT22;23252;-33.992;18.480;2023-06-10T05:14:20;11.50;99.90
37380;DHT22;23252;-33.992;18.480;2023-06-10T05:16:50;11.50;99.90
37380;DHT22;23252;-33.992;18.480;2023-06-10T05:19:17;11.50;99.90
37380;DHT22;23252;-33.992;18.480;2023-06-10T05:21:45;11.50;99.90
37380;DHT22;23252;-33.992;18.480;2023-06-10T05:24:11;11.60;99.90
37380;DHT22;23252;-33.992;18.480;2023-06-10T05:26:38;11.50;99.90
37380;DHT22;23252;-33.992;18.480;2023-06-10T05:29:05;11.60;99.90
37380;DHT22;23252;-33.992;18.480;2023-06-10T05:31:32;11.60;99.90
37380;DHT22;23252;-33.992;18.480;2023-06-10T05:33:58;11.50;99.90
37380;DHT22;23252;-33.992;18.480;2023-06-10T05:36:25;11.50;99.90
37380;DHT22;23252;-33.992;18.480;2023-06-10T05:38:55;11.60;99.90
37380;DHT22;23252;-33.992;18.480;2023-06-10T05:41:21;11.50;99.90
37380;DHT22;23252;-33.992;18.480;2023-06-10T05:43:51;11.60;99.90
37380;DHT22;23252;-33.992;18.480;2023-06-10T05:46:17;11.60;99.90
37380;DHT22;23252;-33.992;18.480;2023-06-10T05:48:46;11.50;99.90
37380;DHT22;23252;-33.992;18.480;2023-06-10T05:51:16;11.50;99.90
37380;DHT22;23252;-33.992;18.480;2023-06-10T05:53:42;11.50;99.90
37380;DHT22;23252;-33.992;18.480;2023-06-10T05:56:13;11.50;99.90
37380;DHT22;23252;-33.992;18.480;2023-06-10T05:58:39;11.50;99.90
37380;DHT22;23252;-33.992;18.480;2023-06-10T06:01:06;11.50;99.90
37380;DHT22;23252;-33.992;18.480;2023-06-10T06:03:36;11.40;99.90
37380;DHT22;23252;-33.992;18.480;2023-06-10T06:06:03;11.30;99.90
37380;DHT22;23252;-33.992;18.480;2023-06-10T06:08:30;11.20;99.90
37380;DHT22;23252;-33.992;18.480;2023-06-10T06:10:56;11.20;99.90
37380;DHT22;23252;-33.992;18.480;2023-06-10T06:13:23;11.20;99.90
37380;DHT22;23252;-33.992;18.480;2023-06-10T06:15:52;11.30;99.90
37380;DHT22;23252;-33.992;18.480;2023-06-10T06:18:22;11.40;99.90
37380;DHT22;23252;-33.992;18.480;2023-06-10T06:20:54;11.40;99.90
37380;DHT22;23252;-33.992;18.480;2023-06-10T06:23:26;11.40;99.90
37380;DHT22;23252;-33.992;18.480;2023-06-10T06:25:52;11.40;99.90
37380;DHT22;23252;-33.992;18.480;2023-06-10T06:28:19;11.40;99.90
37380;DHT22;23252;-33.992;18.480;2023-06-10T06:30:47;11.50;99.90
37380;DHT22;23252;-33.992;18.480;2023-06-10T06:33:16;11.50;99.90
37380;DHT22;23252;-33.992;18.480;2023-06-10T06:35:43;11.60;99.90
37380;DHT22;23252;-33.992;18.480;2023-06-10T06:38:09;11.70;99.90
37380;DHT22;23252;-33.992;18.480;2023-06-10T06:40:38;11.60;99.90
37380;DHT22;23252;-33.992;18.480;2023-06-10T06:43:09;11.70;99.90
37380;DHT22;23252;-33.992;18.480;2023-06-10T06:45:39;11.70;99.90
37380;DHT22;23252;-33.992;18.480;2023-06-10T06:48:12;11.70;99.90
37380;DHT22;23252;-33.992;18.480;2023-06-10T06:50:42;11.70;99.90
37380;DHT22;23252;-33.992;18.480;2023-06-10T06:53:10;11.70;99.90
37380;DHT22;23252;-33.992;18.480;2023-06-10T06:55:37;11.80;99.90
37380;DHT22;23252;-33.992;18.480;2023-06-10T06:58:09;11.80;99.90
37380;DHT22;23252;-33.992;18.480;2023-06-10T07:00:38;11.90;99.90
37380;DHT22;23252;-33.992;18.480;2023-06-10T07:03:05;12.00;99.90
37380;DHT22;23252;-33.992;18.480;2023-06-10T07:05:31;12.00;99.90
37380;DHT22;23252;-33.992;18.480;2023-06-10T07:08:10;12.10;99.90
37380;DHT22;23252;-33.992;18.480;2023-06-10T07:10:38;12.20;99.90
37380;DHT22;23252;-33.992;18.480;2023-06-10T07:13:04;12.30;99.90
37380;DHT22;23252;-33.992;18.480;2023-06-10T07:15:34;12.30;99.90
37380;DHT22;23252;-33.992;18.480;2023-06-10T07:18:00;12.40;99.90
37380;DHT22;23252;-33.992;18.480;2023-06-10T07:20:30;12.50;99.90
37380;DHT22;23252;-33.992;18.480;2023-06-10T07:22:56;12.60;99.90
37380;DHT22;23252;-33.992;18.480;2023-06-10T07:25:23;12.70;99.90
37380;DHT22;23252;-33.992;18.480;2023-06-10T07:27:58;12.80;99.90
37380;DHT22;23252;-33.992;18.480;2023-06-10T07:30:28;12.80;99.90
37380;DHT22;23252;-33.992;18.480;2023-06-10T07:32:55;12.90;99.90
37380;DHT22;23252;-33.992;18.480;2023-06-10T07:35:27;12.90;99.90
37380;DHT22;23252;-33.992;18.480;2023-06-10T07:38:00;13.00;99.90
37380;DHT22;23252;-33.992;18.480;2023-06-10T07:40:32;13.00;99.90
37380;DHT22;23252;-33.992;18.480;2023-06-10T07:43:04;13.10;99.90
37380;DHT22;23252;-33.992;18.480;2023-06-10T07:45:30;13.10;99.90
37380;DHT22;23252;-33.992;18.480;2023-06-10T07:48:00;13.10;99.90
37380;DHT22;23252;-33.992;18.480;2023-06-10T07:50:26;13.20;99.90
37380;DHT22;23252;-33.992;18.480;2023-06-10T07:52:55;13.30;99.90
37380;DHT22;23252;-33.992;18.480;2023-06-10T07:55:28;13.30;99.90
37380;DHT22;23252;-33.992;18.480;2023-06-10T07:58:00;13.40;99.90
37380;DHT22;23252;-33.992;18.480;2023-06-10T08:00:33;13.40;99.90
37380;DHT22;23252;-33.992;18.480;2023-06-10T08:03:05;13.50;99.90
37380;DHT22;23252;-33.992;18.480;2023-06-10T08:05:32;13.50;99.90
37380;DHT22;23252;-33.992;18.480;2023-06-10T08:08:01;13.60;99.90
37380;DHT22;23252;-33.992;18.480;2023-06-10T08:10:34;13.70;99.90
37380;DHT22;23252;-33.992;18.480;2023-06-10T08:13:09;13.70;99.90
37380;DHT22;23252;-33.992;18.480;2023-06-10T08:15:38;13.80;99.90
37380;DHT22;23252;-33.992;18.480;2023-06-10T08:18:13;13.90;99.90
37380;DHT22;23252;-33.992;18.480;2023-06-10T08:20:45;13.90;99.90
37380;DHT22;23252;-33.992;18.480;2023-06-10T08:23:18;14.00;99.90
37380;DHT22;23252;-33.992;18.480;2023-06-10T08:25:45;14.00;99.90
37380;DHT22;23252;-33.992;18.480;2023-06-10T08:28:12;14.00;99.90
37380;DHT22;23252;-33.992;18.480;2023-06-10T08:30:45;14.10;99.90
37380;DHT22;23252;-33.992;18.480;2023-06-10T08:33:14;14.20;99.90
37380;DHT22;23252;-33.992;18.480;2023-06-10T08:35:41;14.30;99.90
37380;DHT22;23252;-33.992;18.480;2023-06-10T08:38:10;14.40;99.90
37380;DHT22;23252;-33.992;18.480;2023-06-10T08:40:39;14.40;99.90
37380;DHT22;23252;-33.992;18.480;2023-06-10T08:45:55;14.60;99.90
37380;DHT22;23252;-33.992;18.480;2023-06-10T08:48:23;14.60;99.90
37380;DHT22;23252;-33.992;18.480;2023-06-10T08:50:52;14.70;99.90
37380;DHT22;23252;-33.992;18.480;2023-06-10T08:53:19;14.70;99.90
37380;DHT22;23252;-33.992;18.480;2023-06-10T08:55:51;14.80;99.90
37380;DHT22;23252;-33.992;18.480;2023-06-10T08:58:20;14.80;99.90
37380;DHT22;23252;-33.992;18.480;2023-06-10T09:00:47;14.90;99.90
37380;DHT22;23252;-33.992;18.480;2023-06-10T09:03:13;14.90;99.90
37380;DHT22;23252;-33.992;18.480;2023-06-10T09:05:41;15.00;99.90
37380;DHT22;23252;-33.992;18.480;2023-06-10T09:08:08;15.00;99.90
37380;DHT22;23252;-33.992;18.480;2023-06-10T09:10:35;15.00;99.90
37380;DHT22;23252;-33.992;18.480;2023-06-10T09:13:02;15.10;99.90
37380;DHT22;23252;-33.992;18.480;2023-06-10T09:15:28;15.10;99.90
37380;DHT22;23252;-33.992;18.480;2023-06-10T09:17:55;15.10;99.90
37380;DHT22;23252;-33.992;18.480;2023-06-10T09:20:22;15.30;99.90
37380;DHT22;23252;-33.992;18.480;2023-06-10T09:22:49;15.40;99.90
37380;DHT22;23252;-33.992;18.480;2023-06-10T09:25:16;15.40;99.90
37380;DHT22;23252;-33.992;18.480;2023-06-10T09:27:46;15.50;99.90
37380;DHT22;23252;-33.992;18.480;2023-06-10T09:30:33;15.50;99.90
37380;DHT22;23252;-33.992;18.480;2023-06-10T09:33:03;15.50;99.90
37380;DHT22;23252;-33.992;18.480;2023-06-10T09:35:35;15.70;99.90
37380;DHT22;23252;-33.992;18.480;2023-06-10T09:38:02;15.80;99.90
37380;DHT22;23252;-33.992;18.480;2023-06-10T09:40:34;15.90;99.90
37380;DHT22;23252;-33.992;18.480;2023-06-10T09:43:14;15.90;99.90
37380;DHT22;23252;-33.992;18.480;2023-06-10T09:45:40;15.90;99.90
37380;DHT22;23252;-33.992;18.480;2023-06-10T09:48:09;15.90;99.90
37380;DHT22;23252;-33.992;18.480;2023-06-10T09:50:45;15.90;99.90
37380;DHT22;23252;-33.992;18.480;2023-06-10T09:53:12;16.00;99.90
37380;DHT22;23252;-33.992;18.480;2023-06-10T09:55:39;16.00;99.90
37380;DHT22;23252;-33.992;18.480;2023-06-10T09:58:07;16.00;99.90
37380;DHT22;23252;-33.992;18.480;2023-06-10T10:00:34;16.10;99.90
37380;DHT22;23252;-33.992;18.480;2023-06-10T10:03:01;16.20;99.90
37380;DHT22;23252;-33.992;18.480;2023-06-10T10:05:28;16.20;99.90
37380;DHT22;23252;-33.992;18.480;2023-06-10T10:07:55;16.30;99.90
37380;DHT22;23252;-33.992;18.480;2023-06-10T10:10:25;16.30;99.90
37380;DHT22;23252;-33.992;18.480;2023-06-10T10:12:55;16.40;99.90
37380;DHT22;23252;-33.992;18.480;2023-06-10T10:15:23;16.40;99.90
37380;DHT22;23252;-33.992;18.480;2023-06-10T10:20:32;16.50;99.90
37380;DHT22;23252;-33.992;18.480;2023-06-10T10:23:03;16.60;99.90
37380;DHT22;23252;-33.992;18.480;2023-06-10T10:25:38;16.70;99.90
37380;DHT22;23252;-33.992;18.480;2023-06-10T10:28:11;16.70;99.90
37380;DHT22;23252;-33.992;18.480;2023-06-10T10:30:47;16.80;99.90
37380;DHT22;23252;-33.992;18.480;2023-06-10T10:33:33;16.90;99.90
37380;DHT22;23252;-33.992;18.480;2023-06-10T10:36:03;16.90;99.90
37380;DHT22;23252;-33.992;18.480;2023-06-10T10:38:29;16.90;99.90
37380;DHT22;23252;-33.992;18.480;2023-06-10T10:40:56;16.90;99.90
37380;DHT22;23252;-33.992;18.480;2023-06-10T10:43:26;17.00;99.90
37380;DHT22;23252;-33.992;18.480;2023-06-10T10:46:00;17.00;99.90
37380;DHT22;23252;-33.992;18.480;2023-06-10T10:48:34;17.00;99.90
37380;DHT22;23252;-33.992;18.480;2023-06-10T10:51:05;17.10;99.90
37380;DHT22;23252;-33.992;18.480;2023-06-10T10:53:32;17.10;99.90
37380;DHT22;23252;-33.992;18.480;2023-06-10T10:56:01;17.20;99.90
37380;DHT22;23252;-33.992;18.480;2023-06-10T10:58:30;17.20;99.90
37380;DHT22;23252;-33.992;18.480;2023-06-10T11:00:58;17.30;99.90
37380;DHT22;23252;-33.992;18.480;2023-06-10T11:03:29;17.30;99.90
37380;DHT22;23252;-33.992;18.480;2023-06-10T11:05:58;17.40;99.90
37380;DHT22;23252;-33.992;18.480;2023-06-10T11:10:57;17.40;99.90
37380;DHT22;23252;-33.992;18.480;2023-06-10T11:13:26;17.40;99.90
37380;DHT22;23252;-33.992;18.480;2023-06-10T11:15:57;17.40;99.90
37380;DHT22;23252;-33.992;18.480;2023-06-10T11:18:30;17.40;99.90
37380;DHT22;23252;-33.992;18.480;2023-06-10T11:21:03;17.40;99.90
37380;DHT22;23252;-33.992;18.480;2023-06-10T11:29:04;17.40;99.90
37380;DHT22;23252;-33.992;18.480;2023-06-10T11:34:03;17.40;99.90
37380;DHT22;23252;-33.992;18.480;2023-06-10T11:36:31;17.50;99.90
37380;DHT22;23252;-33.992;18.480;2023-06-10T11:39:01;17.60;99.90
37380;DHT22;23252;-33.992;18.480;2023-06-10T11:41:29;17.80;99.90
37380;DHT22;23252;-33.992;18.480;2023-06-10T11:44:16;17.80;99.90
37380;DHT22;23252;-33.992;18.480;2023-06-10T11:46:45;17.80;99.90
37380;DHT22;23252;-33.992;18.480;2023-06-10T11:49:12;17.90;99.90
37380;DHT22;23252;-33.992;18.480;2023-06-10T11:51:39;18.10;99.90
37380;DHT22;23252;-33.992;18.480;2023-06-10T11:54:10;18.10;99.90
37380;DHT22;23252;-33.992;18.480;2023-06-10T11:56:37;18.10;99.90
37380;DHT22;23252;-33.992;18.480;2023-06-10T11:59:07;18.10;99.90
37380;DHT22;23252;-33.992;18.480;2023-06-10T12:01:41;18.20;99.90
37380;DHT22;23252;-33.992;18.480;2023-06-10T12:04:10;18.30;99.90
37380;DHT22;23252;-33.992;18.480;2023-06-10T12:06:42;18.40;99.90
37380;DHT22;23252;-33.992;18.480;2023-06-10T12:09:38;18.40;99.90
37380;DHT22;23252;-33.992;18.480;2023-06-10T12:12:05;18.40;99.90
37380;DHT22;23252;-33.992;18.480;2023-06-10T12:14:55;18.40;99.90
37380;DHT22;23252;-33.992;18.480;2023-06-10T12:20:03;18.50;99.90
37380;DHT22;23252;-33.992;18.480;2023-06-10T12:22:43;18.40;99.90
37380;DHT22;23252;-33.992;18.480;2023-06-10T12:25:13;18.20;99.90
37380;DHT22;23252;-33.992;18.480;2023-06-10T12:27:53;18.10;99.90
37380;DHT22;23252;-33.992;18.480;2023-06-10T12:30:24;18.00;99.90
37380;DHT22;23252;-33.992;18.480;2023-06-10T12:32:55;17.90;99.90
37380;DHT22;23252;-33.992;18.480;2023-06-10T12:35:59;17.90;99.90
37380;DHT22;23252;-33.992;18.480;2023-06-10T12:38:34;17.90;99.90
37380;DHT22;23252;-33.992;18.480;2023-06-10T12:41:06;17.80;99.90
37380;DHT22;23252;-33.992;18.480;2023-06-10T12:43:38;17.80;99.90
37380;DHT22;23252;-33.992;18.480;2023-06-10T12:46:12;17.80;99.90
37380;DHT22;23252;-33.992;18.480;2023-06-10T12:48:52;17.80;99.90
37380;DHT22;23252;-33.992;18.480;2023-06-10T12:51:27;17.70;99.90
37380;DHT22;23252;-33.992;18.480;2023-06-10T12:53:54;17.60;99.90
37380;DHT22;23252;-33.992;18.480;2023-06-10T12:56:20;17.60;99.90
37380;DHT22;23252;-33.992;18.480;2023-06-10T12:58:52;17.60;99.90
37380;DHT22;23252;-33.992;18.480;2023-06-10T13:01:19;17.50;99.90
37380;DHT22;23252;-33.992;18.480;2023-06-10T13:03:46;17.50;99.90
37380;DHT22;23252;-33.992;18.480;2023-06-10T13:06:12;17.50;99.90
37380;DHT22;23252;-33.992;18.480;2023-06-10T13:08:39;17.50;99.90
37380;DHT22;23252;-33.992;18.480;2023-06-10T13:11:08;17.50;99.90
37380;DHT22;23252;-33.992;18.480;2023-06-10T13:13:40;17.50;99.90
37380;DHT22;23252;-33.992;18.480;2023-06-10T13:16:13;17.40;99.90
37380;DHT22;23252;-33.992;18.480;2023-06-10T13:18:45;17.40;99.90
37380;DHT22;23252;-33.992;18.480;2023-06-10T13:21:17;17.40;99.90
37380;DHT22;23252;-33.992;18.480;2023-06-10T13:23:47;17.40;99.90
37380;DHT22;23252;-33.992;18.480;2023-06-10T13:26:14;17.40;99.90
37380;DHT22;23252;-33.992;18.480;2023-06-10T13:28:44;17.40;99.90
37380;DHT22;23252;-33.992;18.480;2023-06-10T13:31:13;17.30;99.90
37380;DHT22;23252;-33.992;18.480;2023-06-10T13:33:40;17.30;99.90
37380;DHT22;23252;-33.992;18.480;2023-06-10T13:36:09;17.30;99.90
37380;DHT22;23252;-33.992;18.480;2023-06-10T13:38:36;17.20;99.90
37380;DHT22;23252;-33.992;18.480;2023-06-10T13:41:03;17.20;99.90
37380;DHT22;23252;-33.992;18.480;2023-06-10T13:43:35;17.20;99.90
37380;DHT22;23252;-33.992;18.480;2023-06-10T13:46:02;17.30;99.90
37380;DHT22;23252;-33.992;18.480;2023-06-10T13:48:34;17.30;99.90
37380;DHT22;23252;-33.992;18.480;2023-06-10T13:51:01;17.30;99.90
37380;DHT22;23252;-33.992;18.480;2023-06-10T13:53:30;17.30;99.90
37380;DHT22;23252;-33.992;18.480;2023-06-10T13:55:59;17.20;99.90
37380;DHT22;23252;-33.992;18.480;2023-06-10T13:58:26;17.20;99.90
37380;DHT22;23252;-33.992;18.480;2023-06-10T14:00:54;17.20;99.90
37380;DHT22;23252;-33.992;18.480;2023-06-10T14:03:27;17.20;99.90
37380;DHT22;23252;-33.992;18.480;2023-06-10T14:06:02;17.20;99.90
37380;DHT22;23252;-33.992;18.480;2023-06-10T16:15:48;15.20;99.90
37380;DHT22;23252;-33.992;18.480;2023-06-10T16:18:15;15.20;99.90
37380;DHT22;23252;-33.992;18.480;2023-06-10T16:20:41;15.10;99.90
37380;DHT22;23252;-33.992;18.480;2023-06-10T16:23:08;15.00;99.90
37380;DHT22;23252;-33.992;18.480;2023-06-10T16:25:34;15.00;99.90
37380;DHT22;23252;-33.992;18.480;2023-06-10T16:28:01;14.90;99.90
37380;DHT22;23252;-33.992;18.480;2023-06-10T16:30:29;14.90;99.90
37380;DHT22;23252;-33.992;18.480;2023-06-10T16:32:55;14.80;99.90
37380;DHT22;23252;-33.992;18.480;2023-06-10T16:35:22;14.80;99.90
37380;DHT22;23252;-33.992;18.480;2023-06-10T16:37:48;14.70;99.90
37380;DHT22;23252;-33.992;18.480;2023-06-10T16:40:15;14.80;99.90
37380;DHT22;23252;-33.992;18.480;2023-06-10T16:42:41;14.70;99.90
37380;DHT22;23252;-33.992;18.480;2023-06-10T16:45:08;14.70;99.90
37380;DHT22;23252;-33.992;18.480;2023-06-10T16:47:35;14.70;99.90
37380;DHT22;23252;-33.992;18.480;2023-06-10T16:50:02;14.70;99.90
37380;DHT22;23252;-33.992;18.480;2023-06-10T16:52:29;14.60;99.90
37380;DHT22;23252;-33.992;18.480;2023-06-10T16:54:55;14.70;99.90
37380;DHT22;23252;-33.992;18.480;2023-06-10T16:57:22;14.70;99.90
37380;DHT22;23252;-33.992;18.480;2023-06-10T16:59:49;14.70;99.90
37380;DHT22;23252;-33.992;18.480;2023-06-10T17:02:15;14.70;99.90
37380;DHT22;23252;-33.992;18.480;2023-06-10T17:04:42;14.70;99.90
37380;DHT22;23252;-33.992;18.480;2023-06-10T17:07:11;14.60;99.90
37380;DHT22;23252;-33.992;18.480;2023-06-10T17:09:46;14.60;99.90
37380;DHT22;23252;-33.992;18.480;2023-06-10T17:12:13;14.60;99.90
37380;DHT22;23252;-33.992;18.480;2023-06-10T17:14:42;14.50;99.90
37380;DHT22;23252;-33.992;18.480;2023-06-10T17:17:12;14.40;99.90
37380;DHT22;23252;-33.992;18.480;2023-06-10T17:19:40;14.40;99.90
37380;DHT22;23252;-33.992;18.480;2023-06-10T17:22:07;14.40;99.90
37380;DHT22;23252;-33.992;18.480;2023-06-10T17:24:33;14.40;99.90
37380;DHT22;23252;-33.992;18.480;2023-06-10T17:27:00;14.30;99.90
37380;DHT22;23252;-33.992;18.480;2023-06-10T17:29:33;14.30;99.90
37380;DHT22;23252;-33.992;18.480;2023-06-10T17:32:11;14.20;99.90
37380;DHT22;23252;-33.992;18.480;2023-06-10T17:34:37;14.20;99.90
37380;DHT22;23252;-33.992;18.480;2023-06-10T17:37:04;14.20;99.90
37380;DHT22;23252;-33.992;18.480;2023-06-10T17:39:31;14.10;99.90
37380;DHT22;23252;-33.992;18.480;2023-06-10T17:41:57;14.10;99.90